sensor_id;sensor_type;location;lat;lon;timestamp;temperature;humidity
10129;DHT22;5104;50.720;7.044;2024-01-11T00:00:51;-5.30;99.90
10129;DHT22;5104;50.720;7.044;2024-01-11T00:03:18;-5.30;1.00
10129;DHT22;5104;50.720;7.044;2024-01-11T00:05:45;-5.30;1.00
10129;DHT22;5104;50.720;7.044;2024-01-11T00:08:12;-5.30;99.90
10129;DHT22;5104;50.720;7.044;2024-01-11T00:10:39;-5.30;99.90
10129;DHT22;5104;50.720;7.044;2024-01-11T00:13:05;-5.20;99.90
10129;DHT22;5104;50.720;7.044;2024-01-11T00:15:32;-5.20;99.90
10129;DHT22;5104;50.720;7.044;2024-01-11T00:18:01;-5.10;99.90
10129;DHT22;5104;50.720;7.044;2024-01-11T00:20:27;-5.20;94.80
10129;DHT22;5104;50.720;7.044;2024-01-11T00:22:54;-5.30;22.40
10129;DHT22;5104;50.720;7.044;2024-01-11T00:25:21;-5.20;99.90
10129;DHT22;5104;50.720;7.044;2024-01-11T00:27:49;-5.20;99.90
10129;DHT22;5104;50.720;7.044;2024-01-11T00:30:16;-5.20;99.90
10129;DHT22;5104;50.720;7.044;2024-01-11T00:32:43;-5.20;99.90
10129;DHT22;5104;50.720;7.044;2024-01-11T00:35:11;-5.20;99.90
10129;DHT22;5104;50.720;7.044;2024-01-11T00:37:38;-5.20;94.90
10129;DHT22;5104;50.720;7.044;2024-01-11T00:40:06;-5.30;99.90
10129;DHT22;5104;50.720;7.044;2024-01-11T00:42:33;-5.30;99.90
10129;DHT22;5104;50.720;7.044;2024-01-11T00:45:01;-5.40;99.90
10129;DHT22;5104;50.720;7.044;2024-01-11T00:47:28;-5.30;99.90
10129;DHT22;5104;50.720;7.044;2024-01-11T00:49:55;-5.30;99.90
10129;DHT22;5104;50.720;7.044;2024-01-11T00:52:23;-5.20;99.90
10129;DHT22;5104;50.720;7.044;2024-01-11T00:54:50;-5.30;99.90
10129;DHT22;5104;50.720;7.044;2024-01-11T00:57:17;-5.30;99.90
10129;DHT22;5104;50.720;7.044;2024-01-11T00:59:44;-5.30;99.90
10129;DHT22;5104;50.720;7.044;2024-01-11T01:02:11;-5.30;99.90
10129;DHT22;5104;50.720;7.044;2024-01-11T01:04:38;-5.20;99.90
10129;DHT22;5104;50.720;7.044;2024-01-11T01:07:05;-5.10;99.90
10129;DHT22;5104;50.720;7.044;2024-01-11T01:09:34;-5.10;99.90
10129;DHT22;5104;50.720;7.044;2024-01-11T01:12:01;-5.10;99.90
10129;DHT22;5104;50.720;7.044;2024-01-11T01:14:28;-5.20;99.90
10129;DHT22;5104;50.720;7.044;2024-01-11T01:16:55;-5.20;99.90
10129;DHT22;5104;50.720;7.044;2024-01-11T01:19:22;-5.10;99.90
10129;DHT22;5104;50.720;7.044;2024-01-11T01:21:49;-5.10;12.40
10129;DHT22;5104;50.720;7.044;2024-01-11T01:24:16;-5.10;99.90
10129;DHT22;5104;50.720;7.044;2024-01-11T01:26:44;-5.10;56.60
10129;DHT22;5104;50.720;7.044;2024-01-11T01:29:11;-5.10;99.90
10129;DHT22;5104;50.720;7.044;2024-01-11T01:31:38;-5.10;99.90
10129;DHT22;5104;50.720;7.044;2024-01-11T01:34:06;-5.10;99.90
10129;DHT22;5104;50.720;7.044;2024-01-11T01:36:34;-5.10;91.30
10129;DHT22;5104;50.720;7.044;2024-01-11T01:39:00;-5.10;99.90
10129;DHT22;5104;50.720;7.044;2024-01-11T01:41:29;-5.20;99.90
10129;DHT22;5104;50.720;7.044;2024-01-11T01:43:57;-5.30;99.90
10129;DHT22;5104;50.720;7.044;2024-01-11T01:46:25;-5.30;99.90
10129;DHT22;5104;50.720;7.044;2024-01-11T01:48:53;-5.30;99.90
10129;DHT22;5104;50.720;7.044;2024-01-11T01:51:21;-5.40;99.90
10129;DHT22;5104;50.720;7.044;2024-01-11T01:53:49;-5.30;99.90
10129;DHT22;5104;50.720;7.044;2024-01-11T01:56:18;-5.30;99.90
10129;DHT22;5104;50.720;7.044;2024-01-11T01:58:46;-5.40;99.90
10129;DHT22;5104;50.720;7.044;2024-01-11T02:01:15;-5.40;1.00
10129;DHT22;5104;50.720;7.044;2024-01-11T02:03:43;-5.40;1.00
10129;DHT22;5104;50.720;7.044;2024-01-11T02:06:11;-5.40;1.00
10129;DHT22;5104;50.720;7.044;2024-01-11T02:08:40;-5.40;1.00
10129;DHT22;5104;50.720;7.044;2024-01-11T02:11:10;-5.40;1.00
10129;DHT22;5104;50.720;7.044;2024-01-11T02:13:38;-5.50;1.00
10129;DHT22;5104;50.720;7.044;2024-01-11T02:16:05;-5.50;1.00
10129;DHT22;5104;50.720;7.044;2024-01-11T02:18:34;-5.50;1.00
10129;DHT22;5104;50.720;7.044;2024-01-11T02:21:02;-5.60;1.00
10129;DHT22;5104;50.720;7.044;2024-01-11T02:23:32;-5.50;1.00
10129;DHT22;5104;50.720;7.044;2024-01-11T02:26:01;-5.50;1.00
10129;DHT22;5104;50.720;7.044;2024-01-11T02:28:28;-5.50;1.00
10129;DHT22;5104;50.720;7.044;2024-01-11T02:30:55;-5.40;1.00
10129;DHT22;5104;50.720;7.044;2024-01-11T02:33:22;-5.40;1.00
10129;DHT22;5104;50.720;7.044;2024-01-11T02:35:49;-5.50;1.00
10129;DHT22;5104;50.720;7.044;2024-01-11T02:38:16;-5.50;1.00
10129;DHT22;5104;50.720;7.044;2024-01-11T02:40:44;-5.40;1.00
10129;DHT22;5104;50.720;7.044;2024-01-11T02:43:13;-5.40;1.00
10129;DHT22;5104;50.720;7.044;2024-01-11T02:45:40;-5.40;1.00
10129;DHT22;5104;50.720;7.044;2024-01-11T02:48:07;-5.50;1.00
10129;DHT22;5104;50.720;7.044;2024-01-11T02:50:34;-5.50;1.00
10129;DHT22;5104;50.720;7.044;2024-01-11T02:53:01;-5.60;99.90
10129;DHT22;5104;50.720;7.044;2024-01-11T02:55:28;-5.60;1.00
10129;DHT22;5104;50.720;7.044;2024-01-11T02:57:55;-5.60;1.00
10129;DHT22;5104;50.720;7.044;2024-01-11T03:00:23;-5.60;1.00
10129;DHT22;5104;50.720;7.044;2024-01-11T03:02:50;-5.70;1.00
10129;DHT22;5104;50.720;7.044;2024-01-11T03:05:17;-5.80;1.00
10129;DHT22;5104;50.720;7.044;2024-01-11T03:07:44;-5.80;1.00
10129;DHT22;5104;50.720;7.044;2024-01-11T03:10:11;-5.90;1.00
10129;DHT22;5104;50.720;7.044;2024-01-11T03:12:39;-5.90;1.00
10129;DHT22;5104;50.720;7.044;2024-01-11T03:15:07;-5.70;99.90
10129;DHT22;5104;50.720;7.044;2024-01-11T03:17:35;-5.80;1.00
10129;DHT22;5104;50.720;7.044;2024-01-11T03:20:03;-5.80;1.00
10129;DHT22;5104;50.720;7.044;2024-01-11T03:22:31;-5.80;93.30
10129;DHT22;5104;50.720;7.044;2024-01-11T03:24:58;-5.70;99.90
10129;DHT22;5104;50.720;7.044;2024-01-11T03:27:25;-5.70;99.90
10129;DHT22;5104;50.720;7.044;2024-01-11T03:29:52;-5.70;99.90
10129;DHT22;5104;50.720;7.044;2024-01-11T03:32:19;-5.70;99.90
10129;DHT22;5104;50.720;7.044;2024-01-11T03:34:47;-5.70;93.40
10129;DHT22;5104;50.720;7.044;2024-01-11T03:37:14;-5.80;99.90
10129;DHT22;5104;50.720;7.044;2024-01-11T03:39:42;-5.70;99.90
10129;DHT22;5104;50.720;7.044;2024-01-11T03:42:09;-5.70;99.90
10129;DHT22;5104;50.720;7.044;2024-01-11T03:44:36;-5.70;99.90
10129;DHT22;5104;50.720;7.044;2024-01-11T03:47:04;-5.80;99.90
10129;DHT22;5104;50.720;7.044;2024-01-11T03:49:31;-5.80;99.90
10129;DHT22;5104;50.720;7.044;2024-01-11T03:51:59;-5.80;99.90
10129;DHT22;5104;50.720;7.044;2024-01-11T03:54:26;-5.70;99.90
10129;DHT22;5104;50.720;7.044;2024-01-11T03:56:53;-5.70;99.90
10129;DHT22;5104;50.720;7.044;2024-01-11T03:59:20;-5.70;81.30
10129;DHT22;5104;50.720;7.044;2024-01-11T04:01:47;-5.70;96.00
10129;DHT22;5104;50.720;7.044;2024-01-11T04:04:14;-5.80;17.40
10129;DHT22;5104;50.720;7.044;2024-01-11T04:06:41;-5.70;95.80
10129;DHT22;5104;50.720;7.044;2024-01-11T04:09:09;-5.80;99.90
10129;DHT22;5104;50.720;7.044;2024-01-11T04:11:36;-5.80;99.90
10129;DHT22;5104;50.720;7.044;2024-01-11T04:14:03;-5.90;99.90
10129;DHT22;5104;50.720;7.044;2024-01-11T04:16:30;-5.90;99.90
10129;DHT22;5104;50.720;7.044;2024-01-11T04:18:57;-5.80;99.90
10129;DHT22;5104;50.720;7.044;2024-01-11T04:21:25;-5.80;99.90
10129;DHT22;5104;50.720;7.044;2024-01-11T04:23:54;-5.90;99.90
10129;DHT22;5104;50.720;7.044;2024-01-11T04:26:22;-5.90;99.90
10129;DHT22;5104;50.720;7.044;2024-01-11T04:28:51;-5.90;99.90
10129;DHT22;5104;50.720;7.044;2024-01-11T04:31:18;-5.80;1.00
10129;DHT22;5104;50.720;7.044;2024-01-11T04:33:44;-5.70;99.90
10129;DHT22;5104;50.720;7.044;2024-01-11T04:36:13;-5.70;51.50
10129;DHT22;5104;50.720;7.044;2024-01-11T04:38:40;-5.70;1.00
10129;DHT22;5104;50.720;7.044;2024-01-11T04:41:08;-5.80;1.00
10129;DHT22;5104;50.720;7.044;2024-01-11T04:43:37;-5.90;1.00
10129;DHT22;5104;50.720;7.044;2024-01-11T04:46:12;-5.90;97.00
10129;DHT22;5104;50.720;7.044;2024-01-11T04:48:39;-5.90;66.40
10129;DHT22;5104;50.720;7.044;2024-01-11T04:51:06;-5.90;99.90
10129;DHT22;5104;50.720;7.044;2024-01-11T04:53:35;-5.90;99.90
10129;DHT22;5104;50.720;7.044;2024-01-11T04:56:02;-6.00;99.90
10129;DHT22;5104;50.720;7.044;2024-01-11T04:58:29;-5.90;99.90
10129;DHT22;5104;50.720;7.044;2024-01-11T05:00:58;-5.80;99.90
10129;DHT22;5104;50.720;7.044;2024-01-11T05:03:25;-5.90;1.00
10129;DHT22;5104;50.720;7.044;2024-01-11T05:05:52;-5.90;97.50
10129;DHT22;5104;50.720;7.044;2024-01-11T05:08:19;-5.90;1.00
10129;DHT22;5104;50.720;7.044;2024-01-11T05:10:45;-5.90;99.90
10129;DHT22;5104;50.720;7.044;2024-01-11T05:13:12;-5.90;1.00
10129;DHT22;5104;50.720;7.044;2024-01-11T05:15:39;-5.90;1.00
10129;DHT22;5104;50.720;7.044;2024-01-11T05:18:07;-5.90;74.50
10129;DHT22;5104;50.720;7.044;2024-01-11T05:20:34;-5.90;96.30
10129;DHT22;5104;50.720;7.044;2024-01-11T05:23:01;-5.90;1.00
10129;DHT22;5104;50.720;7.044;2024-01-11T05:25:29;-6.00;99.90
10129;DHT22;5104;50.720;7.044;2024-01-11T05:27:58;-6.10;99.90
10129;DHT22;5104;50.720;7.044;2024-01-11T05:30:25;-6.10;1.00
10129;DHT22;5104;50.720;7.044;2024-01-11T05:32:51;-6.10;99.90
10129;DHT22;5104;50.720;7.044;2024-01-11T05:35:20;-6.10;99.90
10129;DHT22;5104;50.720;7.044;2024-01-11T05:37:47;-6.10;99.90
10129;DHT22;5104;50.720;7.044;2024-01-11T05:40:14;-6.00;1.00
10129;DHT22;5104;50.720;7.044;2024-01-11T05:42:41;-5.90;99.90
10129;DHT22;5104;50.720;7.044;2024-01-11T05:45:08;-6.00;99.90
10129;DHT22;5104;50.720;7.044;2024-01-11T05:47:35;-6.00;99.90
10129;DHT22;5104;50.720;7.044;2024-01-11T05:50:03;-6.00;99.90
10129;DHT22;5104;50.720;7.044;2024-01-11T05:52:32;-6.10;99.90
10129;DHT22;5104;50.720;7.044;2024-01-11T05:54:59;-6.10;99.90
10129;DHT22;5104;50.720;7.044;2024-01-11T05:57:26;-6.10;99.90
10129;DHT22;5104;50.720;7.044;2024-01-11T05:59:53;-6.10;99.90
10129;DHT22;5104;50.720;7.044;2024-01-11T06:02:20;-6.10;99.90
10129;DHT22;5104;50.720;7.044;2024-01-11T06:04:48;-6.20;99.90
10129;DHT22;5104;50.720;7.044;2024-01-11T06:07:15;-6.30;99.90
10129;DHT22;5104;50.720;7.044;2024-01-11T06:09:43;-6.20;1.00
10129;DHT22;5104;50.720;7.044;2024-01-11T06:12:10;-6.20;99.90
10129;DHT22;5104;50.720;7.044;2024-01-11T06:14:37;-6.30;99.90
10129;DHT22;5104;50.720;7.044;2024-01-11T06:17:04;-6.20;99.90
10129;DHT22;5104;50.720;7.044;2024-01-11T06:19:31;-6.30;1.00
10129;DHT22;5104;50.720;7.044;2024-01-11T06:21:58;-6.30;40.10
10129;DHT22;5104;50.720;7.044;2024-01-11T06:24:25;-6.30;97.20
10129;DHT22;5104;50.720;7.044;2024-01-11T06:26:53;-6.30;99.90
10129;DHT22;5104;50.720;7.044;2024-01-11T06:29:20;-6.30;99.90
10129;DHT22;5104;50.720;7.044;2024-01-11T06:31:50;-6.20;99.90
10129;DHT22;5104;50.720;7.044;2024-01-11T06:34:16;-6.20;1.00
10129;DHT22;5104;50.720;7.044;2024-01-11T06:36:43;-6.30;1.00
10129;DHT22;5104;50.720;7.044;2024-01-11T06:39:10;-6.30;91.50
10129;DHT22;5104;50.720;7.044;2024-01-11T06:41:41;-6.30;99.90
10129;DHT22;5104;50.720;7.044;2024-01-11T06:44:09;-6.30;99.90
10129;DHT22;5104;50.720;7.044;2024-01-11T06:46:36;-6.30;49.20
10129;DHT22;5104;50.720;7.044;2024-01-11T06:49:04;-6.30;97.30
10129;DHT22;5104;50.720;7.044;2024-01-11T06:51:32;-6.30;78.80
10129;DHT22;5104;50.720;7.044;2024-01-11T06:53:59;-6.40;99.90
10129;DHT22;5104;50.720;7.044;2024-01-11T06:56:27;-6.30;99.90
10129;DHT22;5104;50.720;7.044;2024-01-11T06:58:54;-6.30;99.90
10129;DHT22;5104;50.720;7.044;2024-01-11T07:01:23;-6.30;99.90
10129;DHT22;5104;50.720;7.044;2024-01-11T07:03:50;-6.40;99.90
10129;DHT22;5104;50.720;7.044;2024-01-11T07:06:19;-6.40;99.90
10129;DHT22;5104;50.720;7.044;2024-01-11T07:08:46;-6.50;99.90
10129;DHT22;5104;50.720;7.044;2024-01-11T07:11:13;-6.40;1.00
10129;DHT22;5104;50.720;7.044;2024-01-11T07:13:40;-6.40;99.90
10129;DHT22;5104;50.720;7.044;2024-01-11T07:16:08;-6.40;99.90
10129;DHT22;5104;50.720;7.044;2024-01-11T07:18:36;-6.40;99.90
10129;DHT22;5104;50.720;7.044;2024-01-11T07:21:04;-6.40;1.00
10129;DHT22;5104;50.720;7.044;2024-01-11T07:23:31;-6.30;1.00
10129;DHT22;5104;50.720;7.044;2024-01-11T07:25:58;-6.30;99.90
10129;DHT22;5104;50.720;7.044;2024-01-11T07:28:25;-6.20;1.00
10129;DHT22;5104;50.720;7.044;2024-01-11T07:30:52;-6.10;1.00
10129;DHT22;5104;50.720;7.044;2024-01-11T07:33:19;-6.10;99.90
10129;DHT22;5104;50.720;7.044;2024-01-11T07:35:48;-6.00;99.90
10129;DHT22;5104;50.720;7.044;2024-01-11T07:38:15;-6.00;99.90
10129;DHT22;5104;50.720;7.044;2024-01-11T07:40:42;-5.90;99.90
10129;DHT22;5104;50.720;7.044;2024-01-11T07:43:09;-5.90;1.00
10129;DHT22;5104;50.720;7.044;2024-01-11T07:45:36;-5.90;1.00
10129;DHT22;5104;50.720;7.044;2024-01-11T07:48:03;-5.90;1.00
10129;DHT22;5104;50.720;7.044;2024-01-11T07:50:30;-5.80;1.00
10129;DHT22;5104;50.720;7.044;2024-01-11T07:52:59;-5.80;1.00
10129;DHT22;5104;50.720;7.044;2024-01-11T07:55:26;-5.70;1.00
10129;DHT22;5104;50.720;7.044;2024-01-11T07:57:54;-5.70;1.00
10129;DHT22;5104;50.720;7.044;2024-01-11T08:00:21;-5.70;1.00
10129;DHT22;5104;50.720;7.044;2024-01-11T08:02:49;-5.80;1.00
10129;DHT22;5104;50.720;7.044;2024-01-11T08:05:16;-5.80;1.00
10129;DHT22;5104;50.720;7.044;2024-01-11T08:07:43;-5.70;1.00
10129;DHT22;5104;50.720;7.044;2024-01-11T08:10:11;-5.70;1.00
10129;DHT22;5104;50.720;7.044;2024-01-11T08:12:38;-5.60;1.00
10129;DHT22;5104;50.720;7.044;2024-01-11T08:15:06;-5.60;1.00
10129;DHT22;5104;50.720;7.044;2024-01-11T08:17:36;-5.50;1.00
10129;DHT22;5104;50.720;7.044;2024-01-11T08:20:04;-5.50;1.00
10129;DHT22;5104;50.720;7.044;2024-01-11T08:22:33;-5.50;1.00
10129;DHT22;5104;50.720;7.044;2024-01-11T08:25:03;-5.50;99.90
10129;DHT22;5104;50.720;7.044;2024-01-11T08:27:32;-5.40;99.90
10129;DHT22;5104;50.720;7.044;2024-01-11T08:29:59;-5.40;99.90
10129;DHT22;5104;50.720;7.044;2024-01-11T08:32:27;-5.40;99.90
10129;DHT22;5104;50.720;7.044;2024-01-11T08:34:54;-5.40;99.90
10129;DHT22;5104;50.720;7.044;2024-01-11T08:37:21;-5.30;99.90
10129;DHT22;5104;50.720;7.044;2024-01-11T08:39:48;-5.20;99.90
10129;DHT22;5104;50.720;7.044;2024-01-11T08:42:16;-5.20;99.90
10129;DHT22;5104;50.720;7.044;2024-01-11T08:44:44;-5.10;99.90
10129;DHT22;5104;50.720;7.044;2024-01-11T08:47:13;-5.10;99.90
10129;DHT22;5104;50.720;7.044;2024-01-11T08:49:40;-5.00;99.90
10129;DHT22;5104;50.720;7.044;2024-01-11T08:52:08;-4.90;99.90
10129;DHT22;5104;50.720;7.044;2024-01-11T08:54:35;-4.90;99.90
10129;DHT22;5104;50.720;7.044;2024-01-11T08:57:02;-4.90;99.90
10129;DHT22;5104;50.720;7.044;2024-01-11T08:59:29;-4.80;99.90
10129;DHT22;5104;50.720;7.044;2024-01-11T09:01:57;-4.80;99.90
10129;DHT22;5104;50.720;7.044;2024-01-11T09:04:24;-4.80;99.90
10129;DHT22;5104;50.720;7.044;2024-01-11T09:06:54;-4.80;99.90
10129;DHT22;5104;50.720;7.044;2024-01-11T09:09:22;-4.70;99.90
10129;DHT22;5104;50.720;7.044;2024-01-11T09:11:49;-4.50;99.90
10129;DHT22;5104;50.720;7.044;2024-01-11T09:14:16;-4.40;1.00
10129;DHT22;5104;50.720;7.044;2024-01-11T09:16:43;-4.40;1.00
10129;DHT22;5104;50.720;7.044;2024-01-11T09:19:13;-4.30;1.00
10129;DHT22;5104;50.720;7.044;2024-01-11T09:21:40;-4.20;1.00
10129;DHT22;5104;50.720;7.044;2024-01-11T09:24:07;-4.10;1.00
10129;DHT22;5104;50.720;7.044;2024-01-11T09:26:34;-4.00;1.00
10129;DHT22;5104;50.720;7.044;2024-01-11T09:29:02;-3.90;1.00
10129;DHT22;5104;50.720;7.044;2024-01-11T09:31:29;-3.80;1.00
10129;DHT22;5104;50.720;7.044;2024-01-11T09:33:58;-3.80;1.00
10129;DHT22;5104;50.720;7.044;2024-01-11T09:36:27;-3.80;1.00
10129;DHT22;5104;50.720;7.044;2024-01-11T09:38:54;-3.70;1.00
10129;DHT22;5104;50.720;7.044;2024-01-11T09:41:22;-3.60;1.00
10129;DHT22;5104;50.720;7.044;2024-01-11T09:43:54;-3.50;99.90
10129;DHT22;5104;50.720;7.044;2024-01-11T09:46:24;-3.50;1.00
10129;DHT22;5104;50.720;7.044;2024-01-11T09:48:54;-3.40;99.90
10129;DHT22;5104;50.720;7.044;2024-01-11T09:51:22;-3.30;99.90
10129;DHT22;5104;50.720;7.044;2024-01-11T09:53:51;-3.10;99.90
10129;DHT22;5104;50.720;7.044;2024-01-11T09:56:21;-3.00;99.90
10129;DHT22;5104;50.720;7.044;2024-01-11T09:58:50;-2.70;99.90
10129;DHT22;5104;50.720;7.044;2024-01-11T10:01:18;-2.50;99.90
10129;DHT22;5104;50.720;7.044;2024-01-11T10:03:45;-2.30;92.10
10129;DHT22;5104;50.720;7.044;2024-01-11T10:06:14;-2.30;61.40
10129;DHT22;5104;50.720;7.044;2024-01-11T10:08:42;-2.30;94.20
10129;DHT22;5104;50.720;7.044;2024-01-11T10:11:11;-2.30;99.90
10129;DHT22;5104;50.720;7.044;2024-01-11T10:13:38;-2.30;36.40
10129;DHT22;5104;50.720;7.044;2024-01-11T10:16:07;-2.30;51.50
10129;DHT22;5104;50.720;7.044;2024-01-11T10:18:35;-2.20;13.60
10129;DHT22;5104;50.720;7.044;2024-01-11T10:21:02;-2.10;4.50
10129;DHT22;5104;50.720;7.044;2024-01-11T10:23:33;-2.00;1.00
10129;DHT22;5104;50.720;7.044;2024-01-11T10:26:00;-2.10;39.80
10129;DHT22;5104;50.720;7.044;2024-01-11T10:28:29;-2.10;28.60
10129;DHT22;5104;50.720;7.044;2024-01-11T10:30:58;-2.00;23.70
10129;DHT22;5104;50.720;7.044;2024-01-11T10:33:25;-2.00;31.80
10129;DHT22;5104;50.720;7.044;2024-01-11T10:35:52;-1.90;53.40
10129;DHT22;5104;50.720;7.044;2024-01-11T10:38:22;-1.80;9.40
10129;DHT22;5104;50.720;7.044;2024-01-11T10:40:53;-1.80;1.00
10129;DHT22;5104;50.720;7.044;2024-01-11T10:43:22;-1.70;1.50
10129;DHT22;5104;50.720;7.044;2024-01-11T10:45:52;-1.70;1.30
10129;DHT22;5104;50.720;7.044;2024-01-11T10:48:21;-1.60;1.00
10129;DHT22;5104;50.720;7.044;2024-01-11T10:50:55;-1.50;1.00
10129;DHT22;5104;50.720;7.044;2024-01-11T10:53:28;-1.50;1.00
10129;DHT22;5104;50.720;7.044;2024-01-11T10:55:59;-1.30;1.00
10129;DHT22;5104;50.720;7.044;2024-01-11T10:58:29;-1.20;1.00
10129;DHT22;5104;50.720;7.044;2024-01-11T11:01:00;-1.20;1.00
10129;DHT22;5104;50.720;7.044;2024-01-11T11:03:30;-1.20;1.00
10129;DHT22;5104;50.720;7.044;2024-01-11T11:05:58;-1.10;1.00
10129;DHT22;5104;50.720;7.044;2024-01-11T11:08:27;-0.90;1.00
10129;DHT22;5104;50.720;7.044;2024-01-11T11:10:55;-0.90;1.00
10129;DHT22;5104;50.720;7.044;2024-01-11T11:13:24;-0.80;1.00
10129;DHT22;5104;50.720;7.044;2024-01-11T11:15:52;-0.60;1.00
10129;DHT22;5104;50.720;7.044;2024-01-11T11:18:21;-0.40;1.00
10129;DHT22;5104;50.720;7.044;2024-01-11T11:20:50;-0.40;1.00
10129;DHT22;5104;50.720;7.044;2024-01-11T11:23:18;-0.40;1.00
10129;DHT22;5104;50.720;7.044;2024-01-11T11:25:46;-0.40;1.00
10129;DHT22;5104;50.720;7.044;2024-01-11T11:28:14;-0.30;1.00
10129;DHT22;5104;50.720;7.044;2024-01-11T11:30:42;-0.40;1.00
10129;DHT22;5104;50.720;7.044;2024-01-11T11:33:17;-0.30;1.00
10129;DHT22;5104;50.720;7.044;2024-01-11T11:35:48;-0.20;1.00
10129;DHT22;5104;50.720;7.044;2024-01-11T11:38:17;-0.20;1.00
10129;DHT22;5104;50.720;7.044;2024-01-11T11:40:46;-0.30;1.00
10129;DHT22;5104;50.720;7.044;2024-01-11T11:43:16;-0.30;1.00
10129;DHT22;5104;50.720;7.044;2024-01-11T11:45:45;-0.20;1.00
10129;DHT22;5104;50.720;7.044;2024-01-11T11:48:50;-0.30;1.00
10129;DHT22;5104;50.720;7.044;2024-01-11T11:51:23;-0.30;1.00
10129;DHT22;5104;50.720;7.044;2024-01-11T11:53:50;-0.30;1.00
10129;DHT22;5104;50.720;7.044;2024-01-11T11:56:19;-0.20;1.00
10129;DHT22;5104;50.720;7.044;2024-01-11T11:58:48;-0.20;1.00
10129;DHT22;5104;50.720;7.044;2024-01-11T12:01:17;-0.10;1.00
10129;DHT22;5104;50.720;7.044;2024-01-11T12:03:45;-0.10;1.00
10129;DHT22;5104;50.720;7.044;2024-01-11T12:06:16;0.00;1.00
10129;DHT22;5104;50.720;7.044;2024-01-11T12:08:46;0.00;1.00
10129;DHT22;5104;50.720;7.044;2024-01-11T12:11:14;0.00;1.00
10129;DHT22;5104;50.720;7.044;2024-01-11T12:13:41;0.20;1.00
10129;DHT22;5104;50.720;7.044;2024-01-11T12:16:10;0.30;1.00
10129;DHT22;5104;50.720;7.044;2024-01-11T12:18:38;0.20;1.00
10129;DHT22;5104;50.720;7.044;2024-01-11T12:21:05;0.30;1.00
10129;DHT22;5104;50.720;7.044;2024-01-11T12:23:33;0.30;1.00
10129;DHT22;5104;50.720;7.044;2024-01-11T12:26:03;0.50;1.00
10129;DHT22;5104;50.720;7.044;2024-01-11T12:28:31;0.50;1.00
10129;DHT22;5104;50.720;7.044;2024-01-11T12:30:59;0.50;1.00
10129;DHT22;5104;50.720;7.044;2024-01-11T12:33:27;0.60;1.00
10129;DHT22;5104;50.720;7.044;2024-01-11T12:35:54;0.60;1.00
10129;DHT22;5104;50.720;7.044;2024-01-11T12:38:21;0.60;1.00
10129;DHT22;5104;50.720;7.044;2024-01-11T12:40:49;0.60;1.00
10129;DHT22;5104;50.720;7.044;2024-01-11T12:43:17;0.60;1.00
10129;DHT22;5104;50.720;7.044;2024-01-11T12:45:45;0.60;1.00
10129;DHT22;5104;50.720;7.044;2024-01-11T12:48:12;0.60;1.00
10129;DHT22;5104;50.720;7.044;2024-01-11T12:50:42;0.70;1.00
10129;DHT22;5104;50.720;7.044;2024-01-11T12:53:10;0.70;1.00
10129;DHT22;5104;50.720;7.044;2024-01-11T12:55:44;0.80;1.00
10129;DHT22;5104;50.720;7.044;2024-01-11T12:58:11;0.80;1.00
10129;DHT22;5104;50.720;7.044;2024-01-11T13:00:39;0.90;1.00
10129;DHT22;5104;50.720;7.044;2024-01-11T13:03:06;1.00;1.00
10129;DHT22;5104;50.720;7.044;2024-01-11T13:05:35;0.90;1.00
10129;DHT22;5104;50.720;7.044;2024-01-11T13:08:08;0.90;1.00
10129;DHT22;5104;50.720;7.044;2024-01-11T13:10:35;1.00;1.00
10129;DHT22;5104;50.720;7.044;2024-01-11T13:13:03;1.00;1.00
10129;DHT22;5104;50.720;7.044;2024-01-11T13:15:31;1.00;1.00
10129;DHT22;5104;50.720;7.044;2024-01-11T13:18:00;1.10;1.00
10129;DHT22;5104;50.720;7.044;2024-01-11T13:20:27;1.20;1.00
10129;DHT22;5104;50.720;7.044;2024-01-11T13:23:13;1.20;1.00
10129;DHT22;5104;50.720;7.044;2024-01-11T13:25:41;1.30;1.00
10129;DHT22;5104;50.720;7.044;2024-01-11T13:28:08;1.30;1.00
10129;DHT22;5104;50.720;7.044;2024-01-11T13:30:37;1.30;1.00
10129;DHT22;5104;50.720;7.044;2024-01-11T13:33:06;1.40;1.00
10129;DHT22;5104;50.720;7.044;2024-01-11T13:35:34;1.40;1.00
10129;DHT22;5104;50.720;7.044;2024-01-11T13:38:02;1.40;1.00
10129;DHT22;5104;50.720;7.044;2024-01-11T13:40:29;1.40;1.00
10129;DHT22;5104;50.720;7.044;2024-01-11T13:42:57;1.40;1.00
10129;DHT22;5104;50.720;7.044;2024-01-11T13:45:25;1.40;1.00
10129;DHT22;5104;50.720;7.044;2024-01-11T13:47:53;1.30;1.00
10129;DHT22;5104;50.720;7.044;2024-01-11T13:50:22;1.30;1.00
10129;DHT22;5104;50.720;7.044;2024-01-11T13:52:50;1.30;1.00
10129;DHT22;5104;50.720;7.044;2024-01-11T13:55:18;1.20;1.00
10129;DHT22;5104;50.720;7.044;2024-01-11T13:57:46;1.20;1.00
10129;DHT22;5104;50.720;7.044;2024-01-11T14:00:14;1.20;1.00
10129;DHT22;5104;50.720;7.044;2024-01-11T14:02:43;1.20;1.00
10129;DHT22;5104;50.720;7.044;2024-01-11T14:05:11;1.20;1.00
10129;DHT22;5104;50.720;7.044;2024-01-11T14:07:41;1.20;1.00
10129;DHT22;5104;50.720;7.044;2024-01-11T14:10:09;1.20;1.00
10129;DHT22;5104;50.720;7.044;2024-01-11T14:12:37;1.20;1.00
10129;DHT22;5104;50.720;7.044;2024-01-11T14:15:06;1.10;1.00
10129;DHT22;5104;50.720;7.044;2024-01-11T14:17:37;1.10;1.00
10129;DHT22;5104;50.720;7.044;2024-01-11T14:20:05;1.10;1.00
10129;DHT22;5104;50.720;7.044;2024-01-11T14:22:37;1.00;1.00
10129;DHT22;5104;50.720;7.044;2024-01-11T14:25:07;1.00;1.00
10129;DHT22;5104;50.720;7.044;2024-01-11T14:27:34;0.90;1.00
10129;DHT22;5104;50.720;7.044;2024-01-11T14:30:02;0.90;1.00
10129;DHT22;5104;50.720;7.044;2024-01-11T14:32:31;0.90;1.00
10129;DHT22;5104;50.720;7.044;2024-01-11T14:34:58;0.90;1.00
10129;DHT22;5104;50.720;7.044;2024-01-11T14:37:29;0.90;1.00
10129;DHT22;5104;50.720;7.044;2024-01-11T14:39:56;0.80;1.00
10129;DHT22;5104;50.720;7.044;2024-01-11T14:42:26;0.80;1.00
10129;DHT22;5104;50.720;7.044;2024-01-11T14:44:54;0.70;1.00
10129;DHT22;5104;50.720;7.044;2024-01-11T14:47:21;0.80;1.00
10129;DHT22;5104;50.720;7.044;2024-01-11T14:49:49;0.70;1.00
10129;DHT22;5104;50.720;7.044;2024-01-11T14:52:17;0.70;1.00
10129;DHT22;5104;50.720;7.044;2024-01-11T14:54:44;0.60;1.00
10129;DHT22;5104;50.720;7.044;2024-01-11T14:57:11;0.60;1.00
10129;DHT22;5104;50.720;7.044;2024-01-11T14:59:40;0.60;1.00
10129;DHT22;5104;50.720;7.044;2024-01-11T15:02:07;0.60;1.00
10129;DHT22;5104;50.720;7.044;2024-01-11T15:04:34;0.50;1.00
10129;DHT22;5104;50.720;7.044;2024-01-11T15:07:03;0.50;1.00
10129;DHT22;5104;50.720;7.044;2024-01-11T15:09:30;0.50;1.00
10129;DHT22;5104;50.720;7.044;2024-01-11T15:11:57;0.40;1.00
10129;DHT22;5104;50.720;7.044;2024-01-11T15:14:25;0.40;1.00
10129;DHT22;5104;50.720;7.044;2024-01-11T15:16:54;0.40;1.00
10129;DHT22;5104;50.720;7.044;2024-01-11T15:19:21;0.40;1.00
10129;DHT22;5104;50.720;7.044;2024-01-11T15:21:48;0.30;1.00
10129;DHT22;5104;50.720;7.044;2024-01-11T15:24:16;0.30;1.00
10129;DHT22;5104;50.720;7.044;2024-01-11T15:26:44;0.20;5.90
10129;DHT22;5104;50.720;7.044;2024-01-11T15:29:11;0.20;16.90
10129;DHT22;5104;50.720;7.044;2024-01-11T15:31:39;0.10;29.70
10129;DHT22;5104;50.720;7.044;2024-01-11T15:34:10;0.10;58.50
10129;DHT22;5104;50.720;7.044;2024-01-11T15:36:38;0.00;99.90
10129;DHT22;5104;50.720;7.044;2024-01-11T15:39:06;0.00;99.90
10129;DHT22;5104;50.720;7.044;2024-01-11T15:41:33;-0.10;99.90
10129;DHT22;5104;50.720;7.044;2024-01-11T15:44:01;-0.20;99.90
10129;DHT22;5104;50.720;7.044;2024-01-11T15:46:29;-0.30;99.90
10129;DHT22;5104;50.720;7.044;2024-01-11T15:48:56;-0.30;99.90
10129;DHT22;5104;50.720;7.044;2024-01-11T15:51:25;-0.30;99.90
10129;DHT22;5104;50.720;7.044;2024-01-11T15:53:52;-0.40;99.90
10129;DHT22;5104;50.720;7.044;2024-01-11T15:56:19;-0.40;99.90
10129;DHT22;5104;50.720;7.044;2024-01-11T15:58:46;-0.50;99.90
10129;DHT22;5104;50.720;7.044;2024-01-11T16:01:13;-0.50;99.90